createdAt,value
2022-11-20T00:01:36.211Z,35.27
2022-11-20T00:04:05.938Z,34.90
2022-11-20T00:06:34.396Z,30.47
2022-11-20T00:09:03.458Z,30.33
2022-11-20T00:11:33.041Z,29.97
2022-11-20T00:14:03.141Z,34.00
2022-11-20T00:16:34.786Z,29.87
2022-11-20T00:19:03.742Z,31.40
2022-11-20T00:21:32.603Z,30.33
2022-11-20T00:24:01.119Z,28.77
2022-11-20T00:26:31.180Z,35.60
2022-11-20T00:29:01.117Z,33.10
2022-11-20T00:31:30.379Z,31.20
2022-11-20T00:34:00.138Z,35.70
2022-11-20T00:36:30.133Z,32.77
2022-11-20T00:38:59.843Z,29.83
2022-11-20T00:41:29.863Z,29.50
2022-11-20T00:43:58.618Z,28.13
2022-11-20T00:46:28.460Z,30.37
2022-11-20T00:48:57.230Z,32.10
2022-11-20T00:51:29.061Z,27.87
2022-11-20T00:53:58.510Z,25.60
2022-11-20T00:56:26.804Z,25.17
2022-11-20T00:58:55.206Z,28.10
2022-11-20T01:01:25.328Z,31.03
2022-11-20T01:03:55.394Z,31.23
2022-11-20T01:06:26.982Z,28.10
2022-11-20T01:08:57.035Z,29.97
2022-11-20T01:11:27.150Z,26.87
2022-11-20T01:13:56.501Z,28.20
2022-11-20T01:16:27.093Z,30.63
2022-11-20T01:18:57.955Z,29.43
2022-11-20T01:21:30.116Z,26.97
2022-11-20T01:23:59.135Z,25.13
2022-11-20T01:26:29.744Z,27.07
2022-11-20T01:28:59.199Z,29.53
2022-11-20T01:31:29.372Z,28.33
2022-11-20T01:33:59.641Z,28.20
2022-11-20T01:36:30.747Z,26.93
2022-11-20T01:39:00.875Z,22.00
2022-11-20T01:41:48.078Z,27.30
2022-11-20T01:44:22.932Z,24.27
2022-11-20T01:46:57.865Z,25.27
2022-11-20T01:49:39.721Z,25.50
2022-11-20T01:52:16.183Z,23.20
2022-11-20T01:54:50.630Z,25.20
2022-11-20T01:57:20.575Z,23.90
2022-11-20T01:59:54.845Z,21.80
2022-11-20T02:02:24.055Z,23.20
2022-11-20T02:04:56.330Z,21.73
2022-11-20T02:07:26.348Z,24.47
2022-11-20T02:09:58.574Z,24.83
2022-11-20T02:12:50.277Z,21.67
2022-11-20T02:15:18.520Z,23.67
2022-11-20T02:17:46.889Z,21.13
2022-11-20T02:20:15.457Z,19.93
2022-11-20T02:22:51.562Z,19.10
2022-11-20T02:25:22.260Z,20.00
2022-11-20T02:27:50.897Z,19.13
2022-11-20T02:30:19.598Z,20.90
2022-11-20T02:32:47.920Z,20.63
2022-11-20T02:35:45.065Z,22.57
2022-11-20T02:38:13.976Z,20.70
2022-11-20T02:40:43.829Z,22.07
2022-11-20T02:43:12.459Z,19.43
2022-11-20T02:45:40.719Z,20.83
2022-11-20T02:48:09.870Z,23.70
2022-11-20T02:50:40.772Z,17.47
2022-11-20T02:53:09.882Z,25.57
2022-11-20T02:55:38.396Z,18.60
2022-11-20T02:58:08.016Z,22.10
2022-11-20T03:00:36.590Z,22.70
2022-11-20T03:03:04.857Z,22.47
2022-11-20T03:05:33.104Z,22.47
2022-11-20T03:08:01.300Z,23.53
2022-11-20T03:10:29.674Z,22.83
2022-11-20T03:12:58.311Z,22.07
2022-11-20T03:15:28.075Z,26.17
2022-11-20T03:17:57.139Z,25.53
2022-11-20T03:20:25.826Z,27.03
2022-11-20T03:22:56.606Z,28.43
2022-11-20T03:25:24.971Z,30.70
2022-11-20T03:27:53.514Z,29.93
2022-11-20T03:30:26.263Z,30.43
2022-11-20T03:32:58.971Z,34.93
2022-11-20T03:35:27.366Z,32.77
2022-11-20T03:37:55.693Z,33.67
2022-11-20T03:40:24.036Z,32.33
2022-11-20T03:42:52.394Z,31.23
2022-11-20T03:45:20.994Z,36.87
2022-11-20T03:47:49.980Z,30.53
2022-11-20T03:50:19.855Z,39.77
2022-11-20T03:52:48.243Z,34.00
2022-11-20T03:55:16.676Z,32.30
2022-11-20T03:57:44.985Z,34.10
2022-11-20T04:00:14.876Z,33.57
2022-11-20T04:02:43.219Z,36.53
2022-11-20T04:05:11.687Z,36.03
2022-11-20T04:07:41.565Z,37.87
2022-11-20T04:10:10.592Z,35.47
2022-11-20T04:12:38.851Z,36.03
2022-11-20T04:15:07.904Z,35.33
2022-11-20T04:17:36.195Z,38.50
2022-11-20T04:20:05.591Z,35.90
2022-11-20T04:22:33.843Z,36.70
2022-11-20T04:25:03.475Z,37.37
2022-11-20T04:27:32.998Z,37.13
2022-11-20T04:30:01.263Z,42.20
2022-11-20T04:32:29.915Z,39.43
2022-11-20T04:34:58.264Z,35.73
2022-11-20T04:37:26.553Z,39.00
2022-11-20T04:39:55.147Z,43.50
2022-11-20T04:42:30.628Z,40.93
2022-11-20T04:44:59.504Z,41.17
2022-11-20T04:47:27.769Z,40.53
2022-11-20T04:49:56.613Z,41.77
2022-11-20T04:52:24.877Z,37.07
2022-11-20T04:54:54.480Z,33.07
2022-11-20T04:57:24.900Z,44.80
2022-11-20T04:59:53.153Z,38.40
2022-11-20T05:02:22.268Z,35.77
2022-11-20T05:04:50.748Z,37.83
2022-11-20T05:07:19.455Z,41.13
2022-11-20T05:09:47.763Z,37.13
2022-11-20T05:12:16.140Z,43.07
2022-11-20T05:14:45.967Z,41.67
2022-11-20T05:17:14.397Z,35.57
2022-11-20T05:19:42.785Z,37.83
2022-11-20T05:22:11.153Z,41.10
2022-11-20T05:24:39.558Z,36.20
2022-11-20T05:27:08.073Z,44.77
2022-11-20T05:29:36.448Z,40.80
2022-11-20T05:32:08.335Z,36.30
2022-11-20T05:34:36.631Z,49.40
2022-11-20T05:37:05.340Z,38.60
2022-11-20T05:39:33.760Z,35.10
2022-11-20T05:42:19.453Z,37.40
2022-11-20T05:44:47.757Z,37.80
2022-11-20T05:47:17.493Z,38.93
2022-11-20T05:49:45.948Z,40.23
2022-11-20T05:52:14.137Z,39.60
2022-11-20T05:54:42.374Z,42.00
2022-11-20T05:57:10.612Z,37.70
2022-11-20T05:59:38.912Z,38.17
2022-11-20T06:02:07.873Z,44.80
2022-11-20T06:04:37.423Z,43.97
2022-11-20T06:07:07.393Z,38.90
2022-11-20T06:09:35.645Z,39.60
2022-11-20T06:12:05.328Z,44.10
2022-11-20T06:14:33.579Z,43.87
2022-11-20T06:17:01.948Z,40.35
2022-11-20T06:19:30.274Z,34.00
2022-11-20T06:21:59.905Z,30.70
2022-11-20T06:24:28.032Z,31.07
2022-11-20T06:26:56.236Z,33.13
2022-11-20T06:29:24.853Z,34.70
2022-11-20T06:31:55.038Z,54.97
2022-11-20T06:34:23.185Z,49.80
2022-11-20T06:36:51.620Z,37.97
2022-11-20T06:39:21.657Z,35.60
2022-11-20T06:41:53.289Z,35.13
2022-11-20T06:44:25.574Z,37.60
2022-11-20T06:46:53.769Z,36.27
2022-11-20T06:49:22.187Z,33.53
2022-11-20T06:51:55.607Z,37.97
2022-11-20T06:55:04.396Z,31.17
2022-11-20T06:57:36.560Z,34.70
2022-11-20T07:00:05.237Z,32.37
2022-11-20T07:02:33.372Z,30.83
2022-11-20T07:05:01.540Z,31.77
2022-11-20T07:07:29.743Z,28.90
2022-11-20T07:09:57.960Z,30.10
2022-11-20T07:12:26.146Z,32.47
2022-11-20T07:14:55.918Z,30.40
2022-11-20T07:17:24.392Z,28.90
2022-11-20T07:19:52.554Z,25.93
2022-11-20T07:22:22.627Z,28.40
2022-11-20T07:24:50.798Z,32.27
2022-11-20T07:33:22.768Z,27.87
2022-11-20T07:35:56.276Z,36.23
2022-11-20T07:38:28.055Z,34.80
2022-11-20T07:40:57.247Z,37.83
2022-11-20T07:43:26.239Z,33.00
2022-11-20T07:45:57.556Z,32.77
2022-11-20T07:48:26.615Z,31.10
2022-11-20T07:50:57.647Z,37.07
2022-11-20T07:53:26.013Z,37.10
2022-11-20T07:55:54.388Z,32.60
2022-11-20T07:58:22.700Z,26.67
2022-11-20T08:00:50.941Z,29.53
2022-11-20T08:03:24.675Z,31.20
2022-11-20T08:05:53.660Z,29.97
2022-11-20T08:08:23.867Z,32.13
2022-11-20T08:10:52.074Z,30.60
2022-11-20T08:13:37.534Z,36.00
2022-11-20T08:16:06.250Z,32.20
2022-11-20T08:18:34.480Z,34.90
2022-11-20T08:21:05.539Z,33.20
2022-11-20T08:23:35.169Z,44.47
2022-11-20T08:26:03.570Z,37.67
2022-11-20T08:28:31.720Z,34.70
2022-11-20T08:31:01.719Z,31.33
2022-11-20T08:33:30.778Z,29.07
2022-11-20T08:36:01.961Z,28.27
2022-11-20T08:38:30.337Z,33.53
2022-11-20T08:41:18.384Z,31.33
2022-11-20T08:43:46.727Z,33.30
2022-11-20T08:46:15.561Z,33.17
2022-11-20T08:48:44.196Z,32.93
2022-11-20T08:51:17.485Z,32.73
2022-11-20T08:53:51.917Z,35.97
2022-11-20T08:56:28.065Z,35.73
2022-11-20T08:59:18.350Z,30.77
2022-11-20T09:01:45.885Z,33.43
2022-11-20T09:04:15.350Z,25.67
2022-11-20T09:06:43.534Z,25.43
2022-11-20T09:09:11.659Z,24.10
2022-11-20T09:11:41.194Z,21.77
2022-11-20T09:14:09.608Z,22.03
2022-11-20T09:16:40.577Z,26.73
2022-11-20T09:21:59.723Z,22.53
2022-11-20T09:24:28.857Z,22.53
2022-11-20T09:26:58.415Z,25.37
2022-11-20T09:29:26.548Z,26.30
2022-11-20T09:31:54.997Z,22.13
2022-11-20T09:34:23.117Z,22.70
2022-11-20T09:36:51.285Z,26.33
2022-11-20T09:39:19.890Z,23.60
2022-11-20T09:42:05.510Z,24.13
2022-11-20T09:44:48.816Z,28.37
2022-11-20T09:47:25.404Z,26.67
2022-11-20T09:50:09.136Z,24.47
2022-11-20T09:52:49.358Z,29.20
2022-11-20T09:55:18.334Z,29.90
2022-11-20T09:57:51.437Z,30.83
2022-11-20T10:00:22.132Z,25.40
2022-11-20T10:02:55.199Z,24.13
2022-11-20T10:05:28.454Z,23.30
2022-11-20T10:08:07.448Z,23.40
2022-11-20T10:10:43.808Z,23.23
2022-11-20T10:13:25.731Z,25.53
2022-11-20T10:16:05.052Z,27.00
2022-11-20T10:18:46.746Z,24.57
2022-11-20T10:21:25.603Z,29.70
2022-11-20T10:24:09.364Z,23.33
2022-11-20T10:26:48.555Z,24.20
2022-11-20T10:29:20.585Z,22.37
2022-11-20T10:31:54.213Z,23.80
2022-11-20T10:34:26.783Z,26.47
2022-11-20T10:37:00.439Z,19.40
2022-11-20T10:39:37.242Z,27.10
2022-11-20T10:42:10.146Z,24.10
2022-11-20T10:45:05.796Z,23.33
2022-11-20T10:47:35.379Z,24.92
2022-11-20T10:50:06.768Z,24.83
2022-11-20T10:52:42.016Z,30.17
2022-11-20T10:55:20.762Z,27.87
2022-11-20T10:57:56.778Z,25.80
2022-11-20T11:00:26.579Z,24.63
2022-11-20T11:02:56.005Z,26.30
2022-11-20T11:05:33.378Z,27.63
2022-11-20T11:08:01.800Z,26.37
2022-11-20T11:10:38.309Z,25.10
2022-11-20T11:13:06.448Z,23.13
2022-11-20T11:15:41.836Z,25.90
2022-11-20T11:18:12.125Z,27.10
2022-11-20T11:20:40.670Z,25.43
2022-11-20T11:23:34.324Z,23.53
2022-11-20T11:26:04.914Z,24.07
2022-11-20T11:28:33.318Z,29.00
2022-11-20T11:31:03.686Z,27.93
2022-11-20T11:33:34.676Z,28.97
2022-11-20T11:36:08.018Z,32.90
2022-11-20T11:38:38.464Z,35.30
2022-11-20T11:41:10.241Z,30.73
2022-11-20T11:43:58.093Z,33.13
2022-11-20T11:46:33.638Z,30.00
2022-11-20T11:49:04.626Z,24.83
2022-11-20T11:51:41.318Z,26.70
2022-11-20T11:54:18.805Z,23.83
2022-11-20T11:56:47.952Z,25.60
2022-11-20T11:59:25.774Z,28.00
2022-11-20T12:01:59.963Z,26.07
2022-11-20T12:04:45.839Z,26.83
2022-11-20T12:07:44.965Z,24.07
2022-11-20T12:10:15.103Z,28.10
2022-11-20T12:12:48.474Z,28.07
2022-11-20T12:15:27.904Z,26.75
2022-11-20T12:17:58.210Z,25.97
2022-11-20T12:20:30.848Z,26.97
2022-11-20T12:23:09.060Z,28.77
2022-11-20T12:25:40.283Z,25.40
2022-11-20T12:28:30.404Z,24.40
2022-11-20T12:31:30.030Z,26.03
2022-11-20T12:34:17.352Z,33.40
2022-11-20T12:36:51.972Z,23.37
2022-11-20T12:39:43.188Z,25.17
2022-11-20T12:43:01.505Z,22.20
2022-11-20T12:45:56.363Z,22.03
2022-11-20T12:48:58.579Z,23.30
2022-11-20T12:51:40.340Z,25.33
2022-11-20T12:54:44.891Z,24.53
2022-11-20T12:57:22.641Z,25.80
2022-11-20T13:00:10.809Z,22.00
2022-11-20T13:03:04.457Z,22.50
2022-11-20T13:05:42.312Z,23.50
2022-11-20T13:08:21.759Z,23.70
2022-11-20T13:10:58.382Z,29.10
2022-11-20T13:13:35.671Z,22.30
2022-11-20T13:16:12.462Z,24.17
2022-11-20T13:18:44.348Z,32.13
2022-11-20T13:21:17.800Z,28.63
2022-11-20T13:23:47.408Z,23.90
2022-11-20T13:26:21.358Z,26.80
2022-11-20T13:29:03.620Z,23.23
2022-11-20T13:31:34.774Z,23.70
2022-11-20T13:34:06.135Z,22.93
2022-11-20T13:36:36.023Z,23.20
2022-11-20T13:39:05.691Z,22.60
2022-11-20T13:41:36.566Z,24.87
2022-11-20T13:44:15.402Z,24.63
2022-11-20T13:46:45.583Z,29.20
2022-11-20T13:49:21.599Z,25.20
2022-11-20T13:51:52.419Z,27.37
2022-11-20T13:54:57.395Z,27.90
2022-11-20T13:57:51.195Z,26.87
2022-11-20T14:00:21.652Z,32.67
2022-11-20T14:03:10.931Z,25.53
2022-11-20T14:05:42.149Z,30.17
2022-11-20T14:08:27.048Z,26.50
2022-11-20T14:11:08.896Z,27.80
2022-11-20T14:13:38.535Z,27.07
2022-11-20T14:16:06.788Z,24.80
2022-11-20T14:18:34.913Z,29.30
2022-11-20T14:21:04.767Z,30.03
2022-11-20T14:23:32.901Z,33.87
2022-11-20T14:26:01.145Z,24.03
2022-11-20T14:28:33.605Z,26.20
2022-11-20T14:31:03.636Z,24.90
2022-11-20T14:33:35.243Z,24.43
2022-11-20T14:36:03.481Z,25.40
2022-11-20T14:38:34.528Z,24.90
2022-11-20T14:41:09.349Z,25.00
2022-11-20T14:43:39.053Z,23.97
2022-11-20T14:46:11.854Z,26.10
2022-11-20T14:48:42.991Z,23.90
2022-11-20T14:51:12.516Z,23.80
2022-11-20T14:53:43.451Z,25.13
2022-11-20T14:56:11.762Z,27.60
2022-11-20T14:58:39.932Z,26.13
2022-11-20T15:01:14.475Z,20.77
2022-11-20T15:03:43.502Z,24.00
2022-11-20T15:06:14.475Z,22.90
2022-11-20T15:08:52.978Z,20.53
2022-11-20T15:11:25.991Z,21.83
2022-11-20T15:13:54.152Z,26.73
2022-11-20T15:16:25.369Z,20.98
2022-11-20T15:18:56.168Z,19.47
2022-11-20T15:21:24.882Z,19.90
2022-11-20T15:23:54.654Z,19.70
2022-11-20T15:26:28.356Z,25.00
2022-11-20T15:28:57.032Z,24.70
2022-11-20T15:31:26.765Z,21.17
2022-11-20T15:33:54.900Z,22.87
2022-11-20T15:36:23.156Z,20.90
2022-11-20T15:38:51.380Z,17.53
2022-11-20T15:41:19.580Z,23.90
2022-11-20T15:43:47.733Z,16.10
2022-11-20T15:46:18.106Z,16.80
2022-11-20T15:48:53.184Z,20.10
2022-11-20T15:51:26.841Z,13.97
2022-11-20T15:53:56.578Z,19.43
2022-11-20T15:56:24.816Z,17.70
2022-11-20T15:58:53.178Z,20.70
2022-11-20T16:01:23.849Z,17.50
2022-11-20T16:03:53.571Z,18.57
2022-11-20T16:06:21.901Z,19.20
2022-11-20T16:08:50.036Z,16.60
2022-11-20T16:11:19.849Z,16.20
2022-11-20T16:14:05.604Z,19.80
2022-11-20T16:16:35.980Z,15.60
2022-11-20T16:19:06.117Z,13.53
2022-11-20T16:21:35.409Z,16.80
2022-11-20T16:24:06.050Z,15.30
2022-11-20T16:26:34.728Z,15.43
2022-11-20T16:29:04.482Z,17.80
2022-11-20T16:31:33.073Z,13.50
2022-11-20T16:34:05.852Z,14.17
2022-11-20T16:36:41.894Z,14.80
2022-11-20T16:39:10.040Z,12.07
2022-11-20T16:41:39.445Z,11.07
2022-11-20T16:44:10.635Z,12.83
2022-11-20T16:46:40.690Z,13.10
2022-11-20T16:49:13.956Z,12.70
2022-11-20T16:51:43.870Z,14.27
2022-11-20T16:54:16.393Z,10.60
2022-11-20T16:56:47.968Z,9.27
2022-11-20T16:59:16.296Z,10.60
2022-11-20T17:01:44.973Z,15.70
2022-11-20T17:04:13.531Z,12.17
2022-11-20T17:06:45.324Z,9.27
2022-11-20T17:09:13.846Z,9.97
2022-11-20T17:11:42.055Z,7.10
2022-11-20T17:14:12.497Z,9.63
2022-11-20T17:16:40.923Z,9.03
2022-11-20T17:19:09.169Z,8.10
2022-11-20T17:21:37.789Z,6.70
2022-11-20T17:24:09.563Z,5.37
2022-11-20T17:26:39.296Z,5.70
2022-11-20T17:29:10.208Z,8.10
2022-11-20T17:31:39.461Z,7.33
2022-11-20T17:34:08.408Z,5.33
2022-11-20T17:36:40.723Z,3.57
2022-11-20T17:39:17.091Z,6.37
2022-11-20T17:42:18.236Z,6.73
2022-11-20T17:44:48.055Z,3.73
2022-11-20T17:47:17.141Z,3.00
2022-11-20T17:49:46.110Z,10.80
2022-11-20T17:52:15.230Z,5.03
2022-11-20T17:54:45.118Z,6.27
2022-11-20T17:57:31.140Z,7.73
2022-11-20T17:59:59.454Z,7.83
2022-11-20T18:02:31.030Z,4.47
2022-11-20T18:04:59.696Z,2.80
2022-11-20T18:07:27.924Z,6.13
2022-11-20T18:09:57.982Z,12.13
2022-11-20T18:12:29.584Z,5.33
2022-11-20T18:15:01.507Z,9.27
2022-11-20T18:17:29.843Z,4.37
2022-11-20T18:20:21.679Z,7.13
2022-11-20T18:22:46.435Z,7.23
2022-11-20T18:25:19.351Z,8.33
2022-11-20T18:27:48.011Z,3.53
2022-11-20T18:30:16.653Z,4.87
2022-11-20T18:32:44.829Z,5.80
2022-11-20T18:35:14.631Z,6.10
2022-11-20T18:37:43.126Z,14.77
2022-11-20T18:40:12.897Z,10.93
2022-11-20T18:43:00.111Z,5.50
2022-11-20T18:45:29.583Z,4.80
2022-11-20T18:47:57.970Z,9.23
2022-11-20T18:50:26.533Z,12.30
2022-11-20T18:52:55.036Z,9.53
2022-11-20T18:55:25.879Z,9.97
2022-11-20T18:57:55.916Z,6.03
2022-11-20T19:00:25.371Z,8.57
2022-11-20T19:02:55.265Z,10.53
2022-11-20T19:05:24.970Z,12.47
2022-11-20T19:07:53.600Z,7.80
2022-11-20T19:10:24.280Z,6.70
2022-11-20T19:12:52.534Z,4.13
2022-11-20T19:15:22.316Z,6.57
2022-11-20T19:17:50.538Z,5.80
2022-11-20T19:20:19.034Z,6.23
2022-11-20T19:22:51.306Z,7.10
2022-11-20T19:25:19.698Z,4.80
2022-11-20T19:27:47.957Z,9.57
2022-11-20T19:30:17.331Z,5.88
2022-11-20T19:32:46.968Z,3.83
2022-11-20T19:35:15.570Z,4.57
2022-11-20T19:37:44.127Z,4.90
2022-11-20T19:40:12.712Z,4.13
2022-11-20T19:42:40.924Z,9.45
2022-11-20T19:45:10.354Z,8.63
2022-11-20T19:48:06.546Z,5.20
2022-11-20T19:50:28.724Z,6.03
2022-11-20T19:52:59.099Z,3.87
2022-11-20T19:55:27.608Z,3.77
2022-11-20T19:57:56.065Z,7.17
2022-11-20T20:00:29.518Z,3.77
2022-11-20T20:03:00.667Z,3.97
2022-11-20T20:05:30.234Z,4.03
2022-11-20T20:07:58.436Z,13.50
2022-11-20T20:10:26.978Z,4.93
2022-11-20T20:12:55.057Z,4.30
2022-11-20T20:15:23.211Z,4.87
2022-11-20T20:17:53.054Z,4.33
2022-11-20T20:20:21.666Z,3.60
2022-11-20T20:22:51.350Z,6.97
2022-11-20T20:25:19.575Z,4.33
2022-11-20T20:27:47.852Z,4.40
2022-11-20T20:30:16.487Z,5.67
2022-11-20T20:32:44.692Z,4.00
2022-11-20T20:35:12.992Z,3.53
2022-11-20T20:37:41.164Z,3.27
2022-11-20T20:40:15.096Z,3.20
2022-11-20T20:42:43.760Z,2.93
2022-11-20T20:45:12.534Z,2.40
2022-11-20T20:47:42.044Z,4.87
2022-11-20T20:50:12.376Z,3.43
2022-11-20T20:52:40.838Z,3.80
2022-11-20T20:55:11.219Z,2.80
2022-11-20T20:57:39.411Z,3.50
2022-11-20T21:00:09.001Z,2.27
2022-11-20T21:02:37.499Z,2.70
2022-11-20T21:05:06.462Z,2.70
2022-11-20T21:07:34.721Z,2.70
2022-11-20T21:10:03.002Z,3.20
2022-11-20T21:12:32.679Z,2.63
2022-11-20T21:15:00.908Z,2.30
2022-11-20T21:17:29.114Z,2.53
2022-11-20T21:20:00.484Z,2.77
2022-11-20T21:22:33.860Z,3.20
2022-11-20T21:25:04.792Z,3.60
2022-11-20T21:27:34.440Z,4.43
2022-11-20T21:30:02.661Z,4.40
2022-11-20T21:32:31.672Z,14.93
2022-11-20T21:34:59.888Z,3.50
2022-11-20T21:37:28.061Z,4.30
2022-11-20T21:39:56.226Z,2.70
2022-11-20T21:42:24.489Z,2.80
2022-11-20T21:44:54.069Z,2.70
2022-11-20T21:47:22.234Z,4.37
2022-11-20T21:49:50.400Z,6.33
2022-11-20T21:52:18.553Z,2.63
2022-11-20T21:54:46.826Z,3.43
2022-11-20T21:57:15.010Z,3.73
2022-11-20T21:59:43.205Z,7.30
2022-11-20T22:02:14.123Z,3.23
2022-11-20T22:04:42.385Z,2.67
2022-11-20T22:07:10.669Z,4.23
2022-11-20T22:09:39.116Z,2.43
2022-11-20T22:12:07.500Z,3.80
2022-11-20T22:14:34.802Z,3.20
2022-11-20T22:17:03.055Z,4.13
2022-11-20T22:19:32.672Z,3.87
2022-11-20T22:22:00.868Z,2.60
2022-11-20T22:24:29.046Z,5.40
2022-11-20T22:26:58.396Z,2.80
2022-11-20T22:29:26.578Z,5.13
2022-11-20T22:31:54.789Z,2.70
2022-11-20T22:34:23.229Z,2.97
2022-11-20T22:36:53.020Z,3.83
2022-11-20T22:39:22.856Z,5.33
2022-11-20T22:41:53.837Z,5.80
2022-11-20T22:44:22.525Z,7.60
2022-11-20T22:46:51.084Z,5.27
2022-11-20T22:49:19.264Z,5.10
2022-11-20T22:51:47.543Z,4.03
2022-11-20T22:54:17.122Z,4.43
2022-11-20T22:56:45.672Z,3.53
2022-11-20T22:59:13.799Z,3.00
2022-11-20T23:01:42.065Z,3.77
2022-11-20T23:04:12.127Z,6.47
2022-11-20T23:06:40.392Z,4.17
2022-11-20T23:09:12.875Z,5.20
2022-11-20T23:11:42.470Z,7.07
2022-11-20T23:14:14.623Z,4.80
2022-11-20T23:16:43.557Z,3.10
2022-11-20T23:19:14.150Z,6.60
2022-11-20T23:21:43.592Z,5.90
2022-11-20T23:24:12.374Z,5.10
2022-11-20T23:26:43.299Z,8.33
2022-11-20T23:29:11.897Z,3.63
2022-11-20T23:31:40.156Z,4.70
2022-11-20T23:34:08.339Z,8.30
2022-11-20T23:36:36.535Z,5.83
2022-11-20T23:39:04.761Z,6.17
2022-11-20T23:41:32.949Z,8.00
2022-11-20T23:44:02.508Z,6.00
2022-11-20T23:46:30.685Z,6.47
2022-11-20T23:48:58.832Z,7.20
2022-11-20T23:51:27.082Z,7.07
2022-11-20T23:53:55.257Z,4.20
2022-11-20T23:56:24.368Z,4.97
2022-11-20T23:58:52.540Z,6.43
